createdAt,value
2022-12-04T00:14:21.658Z,91.74
2022-12-04T00:29:23.578Z,92.07
2022-12-04T00:44:25.539Z,92.22
2022-12-04T00:59:27.479Z,92.39
2022-12-04T01:14:29.519Z,92.48
2022-12-04T01:29:31.439Z,92.68
2022-12-04T01:44:33.425Z,92.92
2022-12-04T02:00:06.099Z,92.80
2022-12-04T02:15:28.765Z,92.82
2022-12-04T02:30:32.521Z,92.89
2022-12-04T02:45:41.446Z,92.94
2022-12-04T03:00:45.595Z,92.94
2022-12-04T03:15:54.740Z,92.82
2022-12-04T03:31:03.873Z,92.78
2022-12-04T03:46:26.166Z,92.91
2022-12-04T04:01:36.824Z,92.87
2022-12-04T04:17:01.815Z,93.21
2022-12-04T04:32:20.376Z,92.96
2022-12-04T04:47:30.605Z,92.93
2022-12-04T05:02:33.933Z,92.93
2022-12-04T05:17:36.625Z,92.85
2022-12-04T05:32:38.796Z,92.85
2022-12-04T05:47:44.679Z,92.70
2022-12-04T06:02:46.660Z,92.79
2022-12-04T06:17:48.647Z,92.72
2022-12-04T06:32:50.556Z,92.77
2022-12-04T06:47:52.467Z,92.74
2022-12-04T07:02:54.415Z,92.53
2022-12-04T07:17:56.625Z,92.43
2022-12-04T07:32:58.516Z,92.49
2022-12-04T07:48:00.442Z,92.35
2022-12-04T08:03:02.312Z,92.30
2022-12-04T08:18:04.223Z,92.21
2022-12-04T08:33:06.143Z,92.10
2022-12-04T08:48:08.032Z,91.97
2022-12-04T09:03:14.145Z,91.69
2022-12-04T09:18:16.081Z,91.51
2022-12-04T09:33:17.934Z,91.48
2022-12-04T09:48:22.714Z,91.29
2022-12-04T10:03:28.643Z,90.91
2022-12-04T10:18:58.902Z,90.44
2022-12-04T10:34:12.847Z,90.20
2022-12-04T10:49:38.143Z,90.04
2022-12-04T11:04:42.227Z,90.00
2022-12-04T11:19:44.261Z,89.71
2022-12-04T11:34:46.623Z,89.67
2022-12-04T11:50:38.366Z,89.83
2022-12-04T12:05:43.491Z,89.64
2022-12-04T12:21:01.747Z,89.59
2022-12-04T12:36:12.025Z,89.71
2022-12-04T12:51:38.763Z,89.64
2022-12-04T13:06:43.466Z,89.54
2022-12-04T13:22:07.324Z,89.61
2022-12-04T13:37:09.285Z,89.81
2022-12-04T13:52:40.404Z,89.89
2022-12-04T14:07:55.839Z,90.09
2022-12-04T14:23:18.189Z,90.11
2022-12-04T14:38:23.181Z,89.99
2022-12-04T14:53:50.924Z,90.12
2022-12-04T15:09:18.525Z,89.99
2022-12-04T15:24:23.623Z,90.03
2022-12-04T15:39:30.863Z,89.97
2022-12-04T15:54:33.685Z,89.96
2022-12-04T16:09:35.622Z,89.99
2022-12-04T16:24:40.006Z,90.02
2022-12-04T16:39:42.019Z,89.88
2022-12-04T16:54:43.998Z,89.82
2022-12-04T17:09:46.219Z,89.67
2022-12-04T17:24:54.307Z,89.60
2022-12-04T17:39:57.840Z,89.62
2022-12-04T17:55:00.242Z,89.57
2022-12-04T18:10:02.214Z,89.51
2022-12-04T18:25:04.266Z,89.23
2022-12-04T18:40:07.578Z,89.45
2022-12-04T18:55:10.018Z,89.31
2022-12-04T19:10:12.145Z,89.28
2022-12-04T19:25:14.122Z,89.18
2022-12-04T19:40:16.124Z,89.05
2022-12-04T19:55:18.185Z,88.86
2022-12-04T20:10:21.264Z,89.00
2022-12-04T20:25:23.445Z,88.86
2022-12-04T20:40:25.444Z,88.92
2022-12-04T20:55:27.445Z,88.92
2022-12-04T21:10:29.454Z,88.90
2022-12-04T21:25:31.386Z,88.91
2022-12-04T21:40:39.014Z,88.92
2022-12-04T21:55:56.165Z,89.02
2022-12-04T22:10:58.186Z,88.69
2022-12-04T22:26:11.465Z,89.01
2022-12-04T22:41:15.706Z,89.08
2022-12-04T22:56:17.625Z,88.96
2022-12-04T23:11:21.637Z,88.74
2022-12-04T23:26:35.594Z,88.80
2022-12-04T23:41:37.517Z,88.88
2022-12-04T23:56:39.440Z,88.90
